Time,TemperatureF,DewpointF,PressureIn,WindDirection,WindDirectionDegrees,WindSpeedMPH,WindSpeedGustMPH,Humidity,HourlyPrecipIn,Conditions,Clouds,dailyrainin,SoftwareType,DateUTC
2013-08-13 00:10:00,67.2,66.0,29.85,SW,223,0.0,-999.0,96,-99.99,,,0.00,weatherlink.com 1.10,2013-08-13 04:10:00,
2013-08-13 00:25:00,67.0,66.0,29.83,NNW,342,0.0,-999.0,96,-99.99,,,0.04,weatherlink.com 1.10,2013-08-13 04:25:00,
2013-08-13 00:40:00,66.8,66.0,29.82,NNW,342,0.0,-999.0,97,-99.99,,,0.05,weatherlink.com 1.10,2013-08-13 04:40:00,
2013-08-13 00:55:00,66.8,66.0,29.82,NNW,343,0.0,-999.0,97,-99.99,,,0.05,weatherlink.com 1.10,2013-08-13 04:55:00,
2013-08-13 01:10:00,66.3,66.0,29.82,WNW,293,0.0,-999.0,97,-99.99,,,0.05,weatherlink.com 1.10,2013-08-13 05:10:00,
2013-08-13 01:25:00,66.0,65.0,29.83,West,275,0.0,-999.0,97,-99.99,,,0.05,weatherlink.com 1.10,2013-08-13 05:25:00,
2013-08-13 01:40:00,65.6,65.0,29.83,SW,214,0.0,-999.0,97,-99.99,,,0.05,weatherlink.com 1.10,2013-08-13 05:40:00,
2013-08-13 01:55:00,65.6,65.0,29.83,SW,219,0.0,-999.0,97,-99.99,,,0.05,weatherlink.com 1.10,2013-08-13 05:55:00,
2013-08-13 02:10:00,65.3,65.0,29.82,WSW,256,0.0,-999.0,97,-99.99,,,0.05,weatherlink.com 1.10,2013-08-13 06:10:00,
2013-08-13 02:25:00,64.9,64.0,29.82,WSW,256,0.0,-999.0,97,-99.99,,,0.05,weatherlink.com 1.10,2013-08-13 06:25:00,
2013-08-13 02:40:00,64.5,64.0,29.81,West,270,0.0,-999.0,98,-99.99,,,0.05,weatherlink.com 1.10,2013-08-13 06:40:00,
2013-08-13 02:55:00,64.4,64.0,29.81,WNW,293,0.0,-999.0,98,-99.99,,,0.05,weatherlink.com 1.10,2013-08-13 06:55:00,
2013-08-13 03:10:00,64.5,64.0,29.81,West,265,0.0,-999.0,98,-99.99,,,0.05,weatherlink.com 1.10,2013-08-13 07:10:00,
2013-08-13 03:25:00,64.7,64.0,29.81,WNW,292,0.0,-999.0,98,-99.99,,,0.05,weatherlink.com 1.10,2013-08-13 07:25:00,
2013-08-13 03:40:00,64.6,64.0,29.81,NW,308,0.0,-999.0,98,-99.99,,,0.05,weatherlink.com 1.10,2013-08-13 07:40:00,
2013-08-13 03:55:00,64.3,64.0,29.81,WNW,291,1.0,-999.0,98,-99.99,,,0.05,weatherlink.com 1.10,2013-08-13 07:55:00,
2013-08-13 04:10:00,64.1,64.0,29.81,West,277,0.0,-999.0,98,-99.99,,,0.05,weatherlink.com 1.10,2013-08-13 08:10:00,
2013-08-13 04:25:00,64.1,63.0,29.82,NW,308,2.0,-999.0,97,-99.99,,,0.05,weatherlink.com 1.10,2013-08-13 08:25:00,
2013-08-13 04:40:00,63.8,63.0,29.83,NNW,330,1.0,-999.0,97,-99.99,,,0.05,weatherlink.com 1.10,2013-08-13 08:40:00,
2013-08-13 04:55:00,63.4,63.0,29.84,WNW,302,3.0,-999.0,97,-99.99,,,0.05,weatherlink.com 1.10,2013-08-13 08:55:00,
2013-08-13 05:10:00,63.0,62.0,29.84,NW,312,3.0,-999.0,96,-99.99,,,0.05,weatherlink.com 1.10,2013-08-13 09:10:00,
2013-08-13 05:25:00,62.5,61.0,29.84,NNW,333,0.0,-999.0,96,-99.99,,,0.05,weatherlink.com 1.10,2013-08-13 09:25:00,
2013-08-13 05:40:00,62.1,61.0,29.85,NW,323,0.0,-999.0,96,-99.99,,,0.05,weatherlink.com 1.10,2013-08-13 09:40:00,
2013-08-13 05:55:00,61.7,61.0,29.85,NW,315,0.0,-999.0,96,-99.99,,,0.05,weatherlink.com 1.10,2013-08-13 09:55:00,
2013-08-13 06:10:00,61.2,60.0,29.86,WNW,295,0.0,-999.0,96,-99.99,,,0.05,weatherlink.com 1.10,2013-08-13 10:10:00,
2013-08-13 06:25:00,61.4,60.0,29.87,WNW,295,4.0,-999.0,96,-99.99,,,0.05,weatherlink.com 1.10,2013-08-13 10:25:00,
2013-08-13 06:40:00,61.2,60.0,29.87,WNW,300,3.0,-999.0,96,-99.99,,,0.05,weatherlink.com 1.10,2013-08-13 10:40:00,
2013-08-13 06:55:00,61.2,60.0,29.88,WNW,297,4.0,-999.0,96,-99.99,,,0.05,weatherlink.com 1.10,2013-08-13 10:55:00,
2013-08-13 07:10:00,61.2,60.0,29.88,NNW,328,5.0,-999.0,96,-99.99,,,0.05,weatherlink.com 1.10,2013-08-13 11:10:00,
2013-08-13 07:25:00,61.0,60.0,29.89,NW,320,5.0,-999.0,95,-99.99,,,0.05,weatherlink.com 1.10,2013-08-13 11:25:00,
2013-08-13 07:40:00,60.8,59.0,29.89,NW,314,4.0,-999.0,95,-99.99,,,0.05,weatherlink.com 1.10,2013-08-13 11:40:00,
2013-08-13 07:55:00,60.9,60.0,29.89,NW,309,2.0,-999.0,95,-99.99,,,0.05,weatherlink.com 1.10,2013-08-13 11:55:00,
2013-08-13 08:10:00,61.0,60.0,29.90,NW,311,0.0,-999.0,96,-99.99,,,0.05,weatherlink.com 1.10,2013-08-13 12:10:00,
2013-08-13 08:25:00,61.2,60.0,29.90,NNW,332,3.0,-999.0,95,-99.99,,,0.05,weatherlink.com 1.10,2013-08-13 12:25:00,
2013-08-13 08:40:00,61.4,60.0,29.91,NW,321,8.0,-999.0,94,-99.99,,,0.05,weatherlink.com 1.10,2013-08-13 12:40:00,
2013-08-13 08:55:00,61.1,59.0,29.91,WNW,298,3.0,-999.0,94,-99.99,,,0.05,weatherlink.com 1.10,2013-08-13 12:55:00,
2013-08-13 09:10:00,60.9,59.0,29.92,North,349,3.0,-999.0,94,-99.99,,,0.05,weatherlink.com 1.10,2013-08-13 13:10:00,
2013-08-13 09:25:00,60.6,59.0,29.93,NW,311,5.0,-999.0,93,-99.99,,,0.05,weatherlink.com 1.10,2013-08-13 13:25:00,
2013-08-13 09:40:00,60.7,58.0,29.94,NNW,335,3.0,-999.0,91,-99.99,,,0.05,weatherlink.com 1.10,2013-08-13 13:40:00,
2013-08-13 09:55:00,61.0,57.0,29.94,WNW,301,3.0,-999.0,87,-99.99,,,0.05,weatherlink.com 1.10,2013-08-13 13:55:00,
2013-08-13 10:10:00,61.3,58.0,29.94,WNW,284,5.0,-999.0,88,-99.99,,,0.05,weatherlink.com 1.10,2013-08-13 14:10:00,
2013-08-13 10:25:00,61.8,56.0,29.94,NW,318,5.0,-999.0,82,-99.99,,,0.05,weatherlink.com 1.10,2013-08-13 14:25:00,
2013-08-13 10:40:00,61.4,56.0,29.95,NNW,332,5.0,-999.0,82,-99.99,,,0.05,weatherlink.com 1.10,2013-08-13 14:40:00,
2013-08-13 10:55:00,61.4,56.0,29.95,WNW,291,7.0,-999.0,81,-99.99,,,0.05,weatherlink.com 1.10,2013-08-13 14:55:00,
2013-08-13 11:10:00,62.0,56.0,29.95,West,277,6.0,-999.0,81,-99.99,,,0.05,weatherlink.com 1.10,2013-08-13 15:10:00,
2013-08-13 11:25:00,62.7,56.0,29.96,WNW,298,7.0,-999.0,78,-99.99,,,0.05,weatherlink.com 1.10,2013-08-13 15:25:00,
2013-08-13 11:40:00,63.7,56.0,29.96,NW,320,5.0,-999.0,75,-99.99,,,0.05,weatherlink.com 1.10,2013-08-13 15:40:00,
2013-08-13 11:55:00,64.4,56.0,29.96,WNW,294,8.0,-999.0,75,-99.99,,,0.05,weatherlink.com 1.10,2013-08-13 15:55:00,
2013-08-13 12:10:00,63.9,54.0,29.97,WNW,300,6.0,-999.0,71,-99.99,,,0.05,weatherlink.com 1.10,2013-08-13 16:10:00,
2013-08-13 12:25:00,65.3,56.0,29.97,WNW,300,3.0,-999.0,71,-99.99,,,0.05,weatherlink.com 1.10,2013-08-13 16:25:00,
2013-08-13 12:40:00,65.7,56.0,29.97,NNW,334,5.0,-999.0,72,-99.99,,,0.05,weatherlink.com 1.10,2013-08-13 16:40:00,
2013-08-13 12:55:00,66.0,55.0,29.96,NW,321,3.0,-999.0,68,-99.99,,,0.05,weatherlink.com 1.10,2013-08-13 16:55:00,
2013-08-13 13:25:00,66.9,56.0,29.96,NNW,342,6.0,-999.0,67,-99.99,,,0.05,weatherlink.com 1.10,2013-08-13 17:25:00,
2013-08-13 13:40:00,66.9,53.0,29.96,NNW,341,6.0,-999.0,62,-99.99,,,0.05,weatherlink.com 1.10,2013-08-13 17:40:00,
2013-08-13 13:55:00,67.3,54.0,29.96,WNW,300,7.0,-999.0,63,-99.99,,,0.05,weatherlink.com 1.10,2013-08-13 17:55:00,
2013-08-13 14:10:00,67.8,53.0,29.96,NW,315,9.0,-999.0,60,-99.99,,,0.05,weatherlink.com 1.10,2013-08-13 18:10:00,
2013-08-13 14:25:00,68.0,54.0,29.97,NW,311,7.0,-999.0,62,-99.99,,,0.05,weatherlink.com 1.10,2013-08-13 18:25:00,
2013-08-13 14:40:00,68.6,54.0,29.97,NW,325,11.0,-999.0,59,-99.99,,,0.05,weatherlink.com 1.10,2013-08-13 18:40:00,
2013-08-13 14:55:00,67.9,53.0,29.97,North,11,10.0,-999.0,60,-99.99,,,0.05,weatherlink.com 1.10,2013-08-13 18:55:00,
2013-08-13 15:10:00,68.4,53.0,29.98,NW,304,3.0,-999.0,58,-99.99,,,0.05,weatherlink.com 1.10,2013-08-13 19:10:00,
2013-08-13 15:25:00,67.8,52.0,29.98,NNE,27,8.0,-999.0,58,-99.99,,,0.05,weatherlink.com 1.10,2013-08-13 19:25:00,
2013-08-13 15:40:00,68.0,52.0,29.98,West,281,6.0,-999.0,58,-99.99,,,0.05,weatherlink.com 1.10,2013-08-13 19:40:00,
2013-08-13 15:55:00,67.0,52.0,29.98,NW,305,6.0,-999.0,58,-99.99,,,0.05,weatherlink.com 1.10,2013-08-13 19:55:00,
2013-08-13 16:10:00,67.7,52.0,29.98,NW,314,5.0,-999.0,58,-99.99,,,0.05,weatherlink.com 1.10,2013-08-13 20:10:00,
2013-08-13 16:25:00,66.9,52.0,29.98,NW,305,8.0,-999.0,60,-99.99,,,0.05,weatherlink.com 1.10,2013-08-13 20:25:00,
2013-08-13 16:40:00,67.3,51.0,29.98,NNE,20,11.0,-999.0,57,-99.99,,,0.05,weatherlink.com 1.10,2013-08-13 20:40:00,
2013-08-13 16:55:00,66.7,51.0,29.98,NNW,334,7.0,-999.0,58,-99.99,,,0.05,weatherlink.com 1.10,2013-08-13 20:55:00,
2013-08-13 17:10:00,66.0,51.0,29.99,NW,308,5.0,-999.0,59,-99.99,,,0.05,weatherlink.com 1.10,2013-08-13 21:10:00,
2013-08-13 17:25:00,65.8,51.0,29.99,NW,311,4.0,-999.0,59,-99.99,,,0.05,weatherlink.com 1.10,2013-08-13 21:25:00,
2013-08-13 17:40:00,67.5,51.0,29.98,WNW,298,13.0,-999.0,55,-99.99,,,0.05,weatherlink.com 1.10,2013-08-13 21:40:00,
2013-08-13 17:55:00,68.0,51.0,29.98,NW,321,4.0,-999.0,55,-99.99,,,0.05,weatherlink.com 1.10,2013-08-13 21:55:00,
2013-08-13 18:10:00,67.3,50.0,29.99,WNW,296,4.0,-999.0,54,-99.99,,,0.05,weatherlink.com 1.10,2013-08-13 22:10:00,
2013-08-13 18:25:00,66.8,51.0,29.99,WNW,295,4.0,-999.0,57,-99.99,,,0.05,weatherlink.com 1.10,2013-08-13 22:25:00,
2013-08-13 18:40:00,65.7,52.0,29.99,NNW,338,2.0,-999.0,61,-99.99,,,0.05,weatherlink.com 1.10,2013-08-13 22:40:00,
2013-08-13 19:10:00,66.4,53.0,29.98,NNW,328,3.0,-999.0,62,-99.99,,,0.05,weatherlink.com 1.10,2013-08-13 23:10:00,
2013-08-13 19:25:00,65.7,52.0,29.99,WNW,295,2.0,-999.0,62,-99.99,,,0.05,weatherlink.com 1.10,2013-08-13 23:25:00,
2013-08-13 19:40:00,64.6,52.0,29.99,WNW,302,2.0,-999.0,65,-99.99,,,0.05,weatherlink.com 1.10,2013-08-13 23:40:00,
2013-08-13 19:55:00,64.6,52.0,29.99,NW,319,4.0,-999.0,63,-99.99,,,0.05,weatherlink.com 1.10,2013-08-13 23:55:00,
2013-08-13 20:10:00,64.1,52.0,29.99,NW,308,2.0,-999.0,64,-99.99,,,0.05,weatherlink.com 1.10,2013-08-14 00:10:00,
2013-08-13 20:25:00,62.8,52.0,29.99,NW,306,0.0,-999.0,68,-99.99,,,0.05,weatherlink.com 1.10,2013-08-14 00:25:00,
2013-08-13 20:40:00,62.2,52.0,29.99,WNW,298,1.0,-999.0,70,-99.99,,,0.05,weatherlink.com 1.10,2013-08-14 00:40:00,
2013-08-13 20:55:00,62.0,53.0,30.00,WNW,296,0.0,-999.0,72,-99.99,,,0.05,weatherlink.com 1.10,2013-08-14 00:55:00,
2013-08-13 21:10:00,62.5,52.0,30.00,NW,309,3.0,-999.0,69,-99.99,,,0.05,weatherlink.com 1.10,2013-08-14 01:10:00,
2013-08-13 21:25:00,62.1,52.0,30.00,NW,306,1.0,-999.0,69,-99.99,,,0.05,weatherlink.com 1.10,2013-08-14 01:25:00,
2013-08-13 21:40:00,61.2,51.0,30.01,NW,306,0.0,-999.0,70,-99.99,,,0.05,weatherlink.com 1.10,2013-08-14 01:40:00,
2013-08-13 21:55:00,60.2,51.0,30.02,NW,307,0.0,-999.0,72,-99.99,,,0.05,weatherlink.com 1.10,2013-08-14 01:55:00,
2013-08-13 22:10:00,59.7,51.0,30.02,NW,308,0.0,-999.0,73,-99.99,,,0.05,weatherlink.com 1.10,2013-08-14 02:10:00,
2013-08-13 22:25:00,58.8,51.0,30.02,WNW,298,0.0,-999.0,75,-99.99,,,0.05,weatherlink.com 1.10,2013-08-14 02:25:00,
2013-08-13 22:40:00,58.4,50.0,30.03,NW,310,0.0,-999.0,74,-99.99,,,0.05,weatherlink.com 1.10,2013-08-14 02:40:00,
2013-08-13 22:55:00,58.0,50.0,30.03,NNW,328,0.0,-999.0,75,-99.99,,,0.05,weatherlink.com 1.10,2013-08-14 02:55:00,
2013-08-13 23:10:00,57.1,50.0,30.03,NW,309,0.0,-999.0,78,-99.99,,,0.05,weatherlink.com 1.10,2013-08-14 03:10:00,
2013-08-13 23:25:00,56.6,50.0,30.03,NW,311,0.0,-999.0,79,-99.99,,,0.05,weatherlink.com 1.10,2013-08-14 03:25:00,
2013-08-13 23:40:00,56.1,50.0,30.04,WNW,300,0.0,-999.0,80,-99.99,,,0.05,weatherlink.com 1.10,2013-08-14 03:40:00,
2013-08-13 23:56:00,56.0,50.0,30.05,NW,306,5.0,-999.0,79,-99.99,,,0.05,weatherlink.com 1.10,2013-08-14 03:56:00,